MAS721 WMKK-WIII
Flight info
| Callsign | MAS721 |
|---|---|
| Flight time | 1h 38m |
| Altitude | 39000 |
| Route | MITOS1D MITOS M630 BOBAG P501 ANITO B470 BUNIK |
| Aircraft | A333/H-SDE3GHIJ2J3J5M1RVWXY/LB2D1 |
Departure
| Time | 2026-05-06 08:11 |
|---|---|
| Airport | Kuala Lumpur International Airport (WMKK) |
Arrival
| Time | 2026-05-06 09:49 |
|---|---|
| Airport | Soekarno-Hatta International Airport (WIII) |
| Time | Latitude | Longitude | Altitude | Speed | Heading |
|---|---|---|---|---|---|
| 2026-05-06 07:43 | 2.75155 | 101.70509 | 61 ft | 0 kts | 326° |
| 2026-05-06 07:57 | 2.75144 | 101.70515 | 71 ft | 4 kts | 326° |
| 2026-05-06 07:57 | 2.75122 | 101.70531 | 64 ft | 4 kts | 326° |
| 2026-05-06 07:58 | 2.75099 | 101.70546 | 61 ft | 4 kts | 326° |
| 2026-05-06 07:58 | 2.75076 | 101.70561 | 61 ft | 4 kts | 326° |
| 2026-05-06 07:58 | 2.75054 | 101.70576 | 61 ft | 4 kts | 326° |
| 2026-05-06 07:58 | 2.75035 | 101.70588 | 61 ft | 0 kts | 326° |
| 2026-05-06 08:00 | 2.75038 | 101.70587 | 71 ft | 1 kts | 326° |
| 2026-05-06 08:00 | 2.75053 | 101.70576 | 64 ft | 4 kts | 323° |
| 2026-05-06 08:01 | 2.75073 | 101.70546 | 63 ft | 7 kts | 288° |
| 2026-05-06 08:01 | 2.75061 | 101.70490 | 65 ft | 10 kts | 239° |
| 2026-05-06 08:01 | 2.75013 | 101.70418 | 61 ft | 15 kts | 236° |
| 2026-05-06 08:01 | 2.74947 | 101.70322 | 61 ft | 18 kts | 236° |
| 2026-05-06 08:02 | 2.74875 | 101.70215 | 63 ft | 19 kts | 236° |
| 2026-05-06 08:02 | 2.74801 | 101.70117 | 61 ft | 15 kts | 209° |
| 2026-05-06 08:02 | 2.74710 | 101.70149 | 61 ft | 15 kts | 145° |
| 2026-05-06 08:02 | 2.74626 | 101.70207 | 60 ft | 15 kts | 145° |
| 2026-05-06 08:03 | 2.74593 | 101.70287 | 64 ft | 13 kts | 67° |
| 2026-05-06 08:03 | 2.74643 | 101.70366 | 63 ft | 14 kts | 57° |
| 2026-05-06 08:03 | 2.74698 | 101.70448 | 64 ft | 14 kts | 56° |
| 2026-05-06 08:03 | 2.74754 | 101.70532 | 61 ft | 15 kts | 56° |
| 2026-05-06 08:04 | 2.74812 | 101.70620 | 63 ft | 15 kts | 56° |
| 2026-05-06 08:04 | 2.74873 | 101.70708 | 65 ft | 15 kts | 55° |
| 2026-05-06 08:04 | 2.74932 | 101.70794 | 67 ft | 15 kts | 55° |
| 2026-05-06 08:04 | 2.74989 | 101.70874 | 69 ft | 14 kts | 54° |
| 2026-05-06 08:05 | 2.75042 | 101.70950 | 84 ft | 13 kts | 56° |
| 2026-05-06 08:05 | 2.75094 | 101.71027 | 83 ft | 14 kts | 56° |
| 2026-05-06 08:05 | 2.75149 | 101.71108 | 85 ft | 15 kts | 55° |
| 2026-05-06 08:05 | 2.75208 | 101.71193 | 84 ft | 15 kts | 56° |
| 2026-05-06 08:06 | 2.75270 | 101.71283 | 84 ft | 16 kts | 56° |
| 2026-05-06 08:06 | 2.75333 | 101.71378 | 83 ft | 17 kts | 56° |
| 2026-05-06 08:06 | 2.75399 | 101.71477 | 69 ft | 18 kts | 56° |
| 2026-05-06 08:06 | 2.75440 | 101.71556 | 71 ft | 11 kts | 93° |
| 2026-05-06 08:07 | 2.75387 | 101.71609 | 65 ft | 11 kts | 146° |
| 2026-05-06 08:07 | 2.75302 | 101.71665 | 66 ft | 17 kts | 146° |
| 2026-05-06 08:07 | 2.75205 | 101.71730 | 69 ft | 17 kts | 146° |
| 2026-05-06 08:07 | 2.75118 | 101.71788 | 67 ft | 14 kts | 146° |
| 2026-05-06 08:08 | 2.75038 | 101.71842 | 69 ft | 14 kts | 146° |
| 2026-05-06 08:08 | 2.74987 | 101.71876 | 84 ft | 13 kts | 146° |
| 2026-05-06 08:08 | 2.74911 | 101.71927 | 86 ft | 13 kts | 146° |
| 2026-05-06 08:08 | 2.74835 | 101.71978 | 84 ft | 13 kts | 146° |
| 2026-05-06 08:09 | 2.74761 | 101.72034 | 85 ft | 13 kts | 127° |
| 2026-05-06 08:09 | 2.74773 | 101.72108 | 85 ft | 12 kts | 57° |
| 2026-05-06 08:09 | 2.74828 | 101.72184 | 87 ft | 13 kts | 35° |
| 2026-05-06 08:09 | 2.74906 | 101.72160 | 84 ft | 13 kts | 327° |
| 2026-05-06 08:10 | 2.75079 | 101.72045 | 84 ft | 57 kts | 326° |
| 2026-05-06 08:10 | 2.75576 | 101.71711 | 65 ft | 113 kts | 326° |
| 2026-05-06 08:10 | 2.76353 | 101.71189 | 60 ft | 158 kts | 326° |
| 2026-05-06 08:10 | 2.77351 | 101.70518 | 320 ft | 175 kts | 325° |
| 2026-05-06 08:11 | 2.78362 | 101.69836 | 788 ft | 179 kts | 325° |
| 2026-05-06 08:11 | 2.79438 | 101.69142 | 1060 ft | 193 kts | 329° |
| 2026-05-06 08:11 | 2.80751 | 101.68595 | 1276 ft | 215 kts | 339° |
| 2026-05-06 08:11 | 2.82245 | 101.68064 | 1524 ft | 241 kts | 339° |
| 2026-05-06 08:12 | 2.83912 | 101.67475 | 1791 ft | 266 kts | 339° |
| 2026-05-06 08:12 | 2.85683 | 101.66846 | 2479 ft | 271 kts | 340° |
| 2026-05-06 08:12 | 2.87463 | 101.66215 | 3256 ft | 271 kts | 342° |
| 2026-05-06 08:12 | 2.89307 | 101.65855 | 4058 ft | 270 kts | 358° |
| 2026-05-06 08:13 | 2.91157 | 101.66121 | 4816 ft | 271 kts | 22° |
| 2026-05-06 08:13 | 2.92709 | 101.67159 | 5582 ft | 272 kts | 49° |
| 2026-05-06 08:13 | 2.93575 | 101.68825 | 6344 ft | 273 kts | 78° |
| 2026-05-06 08:13 | 2.93527 | 101.70687 | 7077 ft | 276 kts | 105° |
| 2026-05-06 08:14 | 2.92592 | 101.72369 | 7804 ft | 281 kts | 128° |
| 2026-05-06 08:14 | 2.91276 | 101.73832 | 8582 ft | 284 kts | 133° |
| 2026-05-06 08:14 | 2.89903 | 101.75263 | 9384 ft | 286 kts | 133° |
| 2026-05-06 08:14 | 2.88518 | 101.76718 | 10072 ft | 293 kts | 133° |
| 2026-05-06 08:15 | 2.87079 | 101.78252 | 10391 ft | 313 kts | 132° |
| 2026-05-06 08:15 | 2.85553 | 101.79897 | 10670 ft | 331 kts | 132° |
| 2026-05-06 08:15 | 2.83961 | 101.81624 | 11098 ft | 342 kts | 132° |
| 2026-05-06 08:15 | 2.82336 | 101.83390 | 11690 ft | 347 kts | 132° |
| 2026-05-06 08:16 | 2.80686 | 101.85183 | 12313 ft | 350 kts | 131° |
| 2026-05-06 08:16 | 2.79033 | 101.86978 | 13044 ft | 351 kts | 131° |
| 2026-05-06 08:16 | 2.77369 | 101.88789 | 13642 ft | 356 kts | 131° |
| 2026-05-06 08:16 | 2.75682 | 101.90622 | 14210 ft | 358 kts | 131° |
| 2026-05-06 08:17 | 2.73988 | 101.92462 | 14796 ft | 361 kts | 131° |
| 2026-05-06 08:17 | 2.72274 | 101.94324 | 15293 ft | 366 kts | 131° |
| 2026-05-06 08:17 | 2.70560 | 101.96185 | 15833 ft | 369 kts | 131° |
| 2026-05-06 08:17 | 2.68815 | 101.98079 | 16375 ft | 372 kts | 131° |
| 2026-05-06 08:18 | 2.67046 | 101.99999 | 16842 ft | 376 kts | 131° |
| 2026-05-06 08:18 | 2.65268 | 102.01928 | 17401 ft | 378 kts | 131° |
| 2026-05-06 08:18 | 2.63478 | 102.03869 | 17897 ft | 381 kts | 131° |
| 2026-05-06 08:18 | 2.61675 | 102.05822 | 18320 ft | 385 kts | 132° |
| 2026-05-06 08:19 | 2.59668 | 102.07617 | 18712 ft | 390 kts | 144° |
| 2026-05-06 08:19 | 2.57227 | 102.08820 | 19126 ft | 395 kts | 162° |
| 2026-05-06 08:19 | 2.54498 | 102.09255 | 19536 ft | 400 kts | 175° |
| 2026-05-06 08:19 | 2.51704 | 102.09340 | 19952 ft | 403 kts | 178° |
| 2026-05-06 08:20 | 2.48888 | 102.09370 | 20353 ft | 406 kts | 178° |
| 2026-05-06 08:20 | 2.46052 | 102.09401 | 20757 ft | 409 kts | 178° |
| 2026-05-06 08:20 | 2.43196 | 102.09441 | 21134 ft | 411 kts | 178° |
| 2026-05-06 08:20 | 2.40323 | 102.09487 | 21543 ft | 414 kts | 177° |
| 2026-05-06 08:21 | 2.37436 | 102.09537 | 21928 ft | 416 kts | 177° |
| 2026-05-06 08:21 | 2.34532 | 102.09589 | 22316 ft | 419 kts | 177° |
| 2026-05-06 08:21 | 2.31607 | 102.09642 | 22693 ft | 421 kts | 177° |
| 2026-05-06 08:21 | 2.28663 | 102.09697 | 23072 ft | 424 kts | 177° |
| 2026-05-06 08:22 | 2.25747 | 102.09751 | 23428 ft | 427 kts | 177° |
| 2026-05-06 08:22 | 2.22766 | 102.09807 | 23720 ft | 429 kts | 177° |
| 2026-05-06 08:22 | 2.19774 | 102.09863 | 24035 ft | 431 kts | 177° |
| 2026-05-06 08:22 | 2.16761 | 102.09919 | 24360 ft | 433 kts | 177° |
| 2026-05-06 08:23 | 2.13741 | 102.09976 | 24685 ft | 435 kts | 177° |
| 2026-05-06 08:23 | 2.10711 | 102.10033 | 25005 ft | 436 kts | 177° |
| 2026-05-06 08:23 | 2.07669 | 102.10090 | 25325 ft | 438 kts | 177° |
| 2026-05-06 08:23 | 2.04624 | 102.10250 | 25643 ft | 439 kts | 172° |
| 2026-05-06 08:24 | 2.01636 | 102.10845 | 25952 ft | 438 kts | 161° |
| 2026-05-06 08:24 | 1.98807 | 102.11975 | 26268 ft | 438 kts | 151° |
| 2026-05-06 08:24 | 1.96245 | 102.13610 | 26576 ft | 438 kts | 140° |
| 2026-05-06 08:24 | 1.94030 | 102.15698 | 26869 ft | 438 kts | 130° |
| 2026-05-06 08:25 | 1.92160 | 102.18103 | 27163 ft | 439 kts | 125° |
| 2026-05-06 08:25 | 1.90409 | 102.20614 | 27459 ft | 441 kts | 123° |
| 2026-05-06 08:25 | 1.88715 | 102.23171 | 27751 ft | 443 kts | 122° |
| 2026-05-06 08:25 | 1.87051 | 102.25728 | 28035 ft | 444 kts | 122° |
| 2026-05-06 08:26 | 1.85364 | 102.28322 | 28337 ft | 446 kts | 122° |
| 2026-05-06 08:26 | 1.83660 | 102.30921 | 28656 ft | 447 kts | 122° |
| 2026-05-06 08:26 | 1.81944 | 102.33517 | 28940 ft | 449 kts | 123° |
| 2026-05-06 08:26 | 1.80210 | 102.36125 | 29195 ft | 451 kts | 123° |
| 2026-05-06 08:27 | 1.78466 | 102.38735 | 29461 ft | 453 kts | 123° |
| 2026-05-06 08:27 | 1.76711 | 102.41356 | 29708 ft | 454 kts | 123° |
| 2026-05-06 08:27 | 1.74946 | 102.43991 | 29902 ft | 458 kts | 123° |
| 2026-05-06 08:27 | 1.73172 | 102.46639 | 30093 ft | 460 kts | 123° |
| 2026-05-06 08:28 | 1.71387 | 102.49305 | 30305 ft | 461 kts | 123° |
| 2026-05-06 08:28 | 1.69596 | 102.51980 | 30519 ft | 463 kts | 123° |
| 2026-05-06 08:28 | 1.67803 | 102.54658 | 30725 ft | 464 kts | 123° |
| 2026-05-06 08:28 | 1.66002 | 102.57349 | 30926 ft | 466 kts | 123° |
| 2026-05-06 08:29 | 1.64199 | 102.60043 | 31121 ft | 468 kts | 123° |
| 2026-05-06 08:29 | 1.62386 | 102.62752 | 31319 ft | 469 kts | 123° |
| 2026-05-06 08:29 | 1.60570 | 102.65465 | 31516 ft | 471 kts | 123° |
| 2026-05-06 08:29 | 1.58747 | 102.68189 | 31708 ft | 472 kts | 123° |
| 2026-05-06 08:30 | 1.56918 | 102.70920 | 31944 ft | 473 kts | 123° |
| 2026-05-06 08:30 | 1.55091 | 102.73649 | 32214 ft | 472 kts | 123° |
| 2026-05-06 08:30 | 1.53265 | 102.76377 | 32496 ft | 471 kts | 123° |
| 2026-05-06 08:30 | 1.51466 | 102.79064 | 32765 ft | 471 kts | 123° |
| 2026-05-06 08:31 | 1.49647 | 102.81782 | 33029 ft | 471 kts | 123° |
| 2026-05-06 08:31 | 1.47821 | 102.84509 | 33301 ft | 470 kts | 123° |
| 2026-05-06 08:31 | 1.46002 | 102.87226 | 33601 ft | 469 kts | 123° |
| 2026-05-06 08:31 | 1.44185 | 102.89939 | 33867 ft | 469 kts | 123° |
| 2026-05-06 08:32 | 1.42372 | 102.92646 | 34103 ft | 468 kts | 123° |
| 2026-05-06 08:32 | 1.40561 | 102.95350 | 34342 ft | 468 kts | 123° |
| 2026-05-06 08:32 | 1.38774 | 102.98019 | 34574 ft | 467 kts | 123° |
| 2026-05-06 08:32 | 1.37044 | 103.00607 | 34793 ft | 467 kts | 123° |
| 2026-05-06 08:33 | 1.35244 | 103.03301 | 35025 ft | 466 kts | 123° |
| 2026-05-06 08:33 | 1.33444 | 103.05995 | 35253 ft | 466 kts | 123° |
| 2026-05-06 08:33 | 1.31649 | 103.08685 | 35479 ft | 465 kts | 123° |
| 2026-05-06 08:33 | 1.29853 | 103.11374 | 35705 ft | 465 kts | 123° |
| 2026-05-06 08:34 | 1.28058 | 103.14062 | 35938 ft | 464 kts | 123° |
| 2026-05-06 08:34 | 1.24477 | 103.19423 | 36359 ft | 464 kts | 123° |
| 2026-05-06 08:34 | 1.22686 | 103.22104 | 36592 ft | 463 kts | 123° |
| 2026-05-06 08:35 | 1.20898 | 103.24781 | 36828 ft | 463 kts | 123° |
| 2026-05-06 08:35 | 1.19111 | 103.27456 | 37054 ft | 462 kts | 123° |
| 2026-05-06 08:35 | 1.17327 | 103.30126 | 37257 ft | 462 kts | 123° |
| 2026-05-06 08:35 | 1.15544 | 103.32794 | 37457 ft | 461 kts | 123° |
| 2026-05-06 08:36 | 1.13761 | 103.35463 | 37655 ft | 461 kts | 123° |
| 2026-05-06 08:36 | 1.11985 | 103.38121 | 37843 ft | 460 kts | 123° |
| 2026-05-06 08:36 | 1.10207 | 103.40783 | 38012 ft | 460 kts | 123° |
| 2026-05-06 08:36 | 1.08426 | 103.43448 | 38127 ft | 462 kts | 123° |
| 2026-05-06 08:37 | 1.06644 | 103.46116 | 38278 ft | 462 kts | 123° |
| 2026-05-06 08:37 | 1.04850 | 103.48723 | 38465 ft | 461 kts | 127° |
| 2026-05-06 08:37 | 1.02777 | 103.51166 | 38618 ft | 461 kts | 131° |
| 2026-05-06 08:37 | 1.00608 | 103.53524 | 38763 ft | 461 kts | 133° |
| 2026-05-06 08:38 | 0.98402 | 103.55844 | 38801 ft | 460 kts | 133° |
| 2026-05-06 08:38 | 0.93956 | 103.60422 | 38812 ft | 457 kts | 134° |
| 2026-05-06 08:39 | 0.89516 | 103.64976 | 38813 ft | 457 kts | 134° |
| 2026-05-06 08:39 | 0.85085 | 103.69539 | 38813 ft | 458 kts | 134° |
| 2026-05-06 08:40 | 0.80653 | 103.74117 | 38812 ft | 458 kts | 134° |
| 2026-05-06 08:40 | 0.76223 | 103.78694 | 38817 ft | 458 kts | 134° |
| 2026-05-06 08:41 | 0.71801 | 103.83263 | 38819 ft | 458 kts | 133° |
| 2026-05-06 08:41 | 0.67363 | 103.87848 | 38818 ft | 459 kts | 133° |
| 2026-05-06 08:42 | 0.62918 | 103.92440 | 38816 ft | 460 kts | 133° |
| 2026-05-06 08:42 | 0.58471 | 103.97034 | 38821 ft | 460 kts | 133° |
| 2026-05-06 08:43 | 0.54024 | 104.01627 | 38820 ft | 460 kts | 133° |
| 2026-05-06 08:43 | 0.49581 | 104.06213 | 38820 ft | 459 kts | 133° |
| 2026-05-06 08:44 | 0.45134 | 104.10803 | 38818 ft | 459 kts | 133° |
| 2026-05-06 08:44 | 0.40634 | 104.15337 | 38814 ft | 460 kts | 138° |
| 2026-05-06 08:45 | 0.35332 | 104.18895 | 38816 ft | 460 kts | 151° |
| 2026-05-06 08:45 | 0.29579 | 104.21728 | 38811 ft | 461 kts | 154° |
| 2026-05-06 08:46 | 0.23765 | 104.24385 | 38809 ft | 463 kts | 154° |
| 2026-05-06 08:46 | 0.17899 | 104.27066 | 38812 ft | 463 kts | 154° |
| 2026-05-06 08:47 | 0.12050 | 104.29771 | 38813 ft | 463 kts | 154° |
| 2026-05-06 08:47 | 0.06211 | 104.32489 | 38811 ft | 463 kts | 154° |
| 2026-05-06 08:48 | 0.00366 | 104.35213 | 38815 ft | 463 kts | 154° |
| 2026-05-06 08:48 | -0.05483 | 104.37937 | 38815 ft | 465 kts | 154° |
| 2026-05-06 08:49 | -0.11352 | 104.40670 | 38810 ft | 466 kts | 154° |
| 2026-05-06 08:49 | -0.17233 | 104.43407 | 38811 ft | 466 kts | 154° |
| 2026-05-06 08:50 | -0.23105 | 104.46141 | 38815 ft | 466 kts | 154° |
| 2026-05-06 08:50 | -0.28975 | 104.48874 | 38811 ft | 466 kts | 154° |
| 2026-05-06 08:51 | -0.34817 | 104.51594 | 38811 ft | 466 kts | 154° |
| 2026-05-06 08:51 | -0.40690 | 104.54328 | 38811 ft | 465 kts | 154° |
| 2026-05-06 08:52 | -0.46540 | 104.57051 | 38813 ft | 463 kts | 154° |
| 2026-05-06 08:52 | -0.52381 | 104.59771 | 38812 ft | 463 kts | 154° |
| 2026-05-06 08:53 | -0.58222 | 104.62491 | 38813 ft | 463 kts | 154° |
| 2026-05-06 08:53 | -0.63076 | 104.64751 | 38811 ft | 463 kts | 154° |
| 2026-05-06 08:54 | -0.68920 | 104.67473 | 38809 ft | 463 kts | 154° |
| 2026-05-06 08:54 | -0.74761 | 104.70192 | 38809 ft | 463 kts | 153° |
| 2026-05-06 08:55 | -0.80605 | 104.72913 | 38810 ft | 462 kts | 153° |
| 2026-05-06 08:55 | -0.86427 | 104.75624 | 38808 ft | 461 kts | 153° |
| 2026-05-06 08:56 | -0.92243 | 104.78333 | 38810 ft | 461 kts | 153° |
| 2026-05-06 08:56 | -0.98022 | 104.81024 | 38808 ft | 461 kts | 153° |
| 2026-05-06 08:57 | -1.03844 | 104.83736 | 38806 ft | 461 kts | 153° |
| 2026-05-06 08:57 | -1.09669 | 104.86448 | 38808 ft | 461 kts | 154° |
| 2026-05-06 08:58 | -1.15722 | 104.88596 | 38805 ft | 463 kts | 162° |
| 2026-05-06 08:58 | -1.21898 | 104.90428 | 38806 ft | 463 kts | 162° |
| 2026-05-06 08:59 | -1.28079 | 104.92233 | 38809 ft | 463 kts | 162° |
| 2026-05-06 08:59 | -1.34271 | 104.94035 | 38798 ft | 463 kts | 162° |
| 2026-05-06 09:00 | -1.40463 | 104.95837 | 38810 ft | 463 kts | 162° |
| 2026-05-06 09:00 | -1.46617 | 104.97627 | 38797 ft | 464 kts | 162° |
| 2026-05-06 09:01 | -1.52825 | 104.99433 | 38809 ft | 466 kts | 163° |
| 2026-05-06 09:01 | -1.59070 | 105.01249 | 38797 ft | 468 kts | 163° |
| 2026-05-06 09:02 | -1.65321 | 105.03067 | 38807 ft | 468 kts | 163° |
| 2026-05-06 09:02 | -1.71577 | 105.04887 | 38798 ft | 468 kts | 163° |
| 2026-05-06 09:03 | -1.77835 | 105.06708 | 38810 ft | 468 kts | 163° |
| 2026-05-06 09:03 | -1.84047 | 105.08515 | 38798 ft | 468 kts | 163° |
| 2026-05-06 09:04 | -1.90289 | 105.10332 | 38815 ft | 467 kts | 163° |
| 2026-05-06 09:04 | -1.96537 | 105.12150 | 38800 ft | 467 kts | 163° |
| 2026-05-06 09:05 | -2.02778 | 105.13966 | 38813 ft | 467 kts | 163° |
| 2026-05-06 09:05 | -2.09025 | 105.15784 | 38798 ft | 467 kts | 163° |
| 2026-05-06 09:06 | -2.15266 | 105.17600 | 38802 ft | 467 kts | 163° |
| 2026-05-06 09:06 | -2.21506 | 105.19416 | 38799 ft | 467 kts | 163° |
| 2026-05-06 09:07 | -2.27753 | 105.21235 | 38795 ft | 466 kts | 163° |
| 2026-05-06 09:07 | -2.33948 | 105.23039 | 38807 ft | 466 kts | 163° |
| 2026-05-06 09:08 | -2.40183 | 105.24854 | 38797 ft | 466 kts | 163° |
| 2026-05-06 09:08 | -2.46378 | 105.26658 | 38808 ft | 466 kts | 163° |
| 2026-05-06 09:09 | -2.52608 | 105.28472 | 38797 ft | 466 kts | 163° |
| 2026-05-06 09:09 | -2.58833 | 105.30286 | 38814 ft | 467 kts | 163° |
| 2026-05-06 09:10 | -2.65061 | 105.32100 | 38800 ft | 464 kts | 163° |
| 2026-05-06 09:10 | -2.71251 | 105.33903 | 38801 ft | 463 kts | 163° |
| 2026-05-06 09:11 | -2.77438 | 105.35705 | 38808 ft | 463 kts | 163° |
| 2026-05-06 09:11 | -2.83628 | 105.37509 | 38800 ft | 463 kts | 163° |
| 2026-05-06 09:12 | -2.89817 | 105.39313 | 38802 ft | 463 kts | 163° |
| 2026-05-06 09:12 | -2.95959 | 105.41103 | 38804 ft | 463 kts | 163° |
| 2026-05-06 09:13 | -3.02122 | 105.42899 | 38799 ft | 459 kts | 163° |
| 2026-05-06 09:13 | -3.08253 | 105.44686 | 38809 ft | 459 kts | 163° |
| 2026-05-06 09:14 | -3.14388 | 105.46475 | 38801 ft | 459 kts | 163° |
| 2026-05-06 09:14 | -3.20525 | 105.48264 | 38813 ft | 459 kts | 163° |
| 2026-05-06 09:15 | -3.26658 | 105.50053 | 38802 ft | 459 kts | 163° |
| 2026-05-06 09:15 | -3.32799 | 105.51844 | 38815 ft | 459 kts | 163° |
| 2026-05-06 09:16 | -3.38933 | 105.53633 | 38813 ft | 459 kts | 163° |
| 2026-05-06 09:16 | -3.45022 | 105.55409 | 38816 ft | 459 kts | 163° |
| 2026-05-06 09:17 | -3.51169 | 105.57203 | 38814 ft | 459 kts | 163° |
| 2026-05-06 09:17 | -3.57302 | 105.58993 | 38801 ft | 459 kts | 163° |
| 2026-05-06 09:18 | -3.63438 | 105.60783 | 38809 ft | 459 kts | 163° |
| 2026-05-06 09:18 | -3.69577 | 105.62575 | 38817 ft | 459 kts | 162° |
| 2026-05-06 09:19 | -3.75720 | 105.64369 | 38805 ft | 460 kts | 163° |
| 2026-05-06 09:19 | -3.81866 | 105.66163 | 38814 ft | 461 kts | 163° |
| 2026-05-06 09:20 | -3.88035 | 105.67965 | 38817 ft | 461 kts | 163° |
| 2026-05-06 09:20 | -3.94167 | 105.69756 | 38805 ft | 461 kts | 163° |
| 2026-05-06 09:21 | -4.00330 | 105.71556 | 38819 ft | 461 kts | 163° |
| 2026-05-06 09:21 | -4.06493 | 105.73356 | 38814 ft | 462 kts | 163° |
| 2026-05-06 09:22 | -4.12679 | 105.75164 | 38678 ft | 464 kts | 163° |
| 2026-05-06 09:22 | -4.15783 | 105.76071 | 38448 ft | 465 kts | 163° |
| 2026-05-06 09:22 | -4.18897 | 105.76981 | 38176 ft | 465 kts | 163° |
| 2026-05-06 09:22 | -4.22004 | 105.77889 | 37899 ft | 466 kts | 163° |
| 2026-05-06 09:23 | -4.25115 | 105.78798 | 37647 ft | 465 kts | 163° |
| 2026-05-06 09:23 | -4.28213 | 105.79704 | 37181 ft | 463 kts | 163° |
| 2026-05-06 09:23 | -4.31315 | 105.80611 | 36636 ft | 464 kts | 163° |
| 2026-05-06 09:23 | -4.34421 | 105.81519 | 36052 ft | 466 kts | 163° |
| 2026-05-06 09:24 | -4.37501 | 105.82420 | 35454 ft | 468 kts | 163° |
| 2026-05-06 09:24 | -4.40638 | 105.83337 | 34797 ft | 471 kts | 163° |
| 2026-05-06 09:24 | -4.43797 | 105.84261 | 34128 ft | 475 kts | 163° |
| 2026-05-06 09:24 | -4.46981 | 105.85192 | 33392 ft | 478 kts | 163° |
| 2026-05-06 09:25 | -4.50186 | 105.86130 | 32647 ft | 480 kts | 163° |
| 2026-05-06 09:25 | -4.53405 | 105.87071 | 31912 ft | 482 kts | 163° |
| 2026-05-06 09:25 | -4.56625 | 105.88013 | 31360 ft | 480 kts | 162° |
| 2026-05-06 09:25 | -4.59827 | 105.88950 | 30877 ft | 476 kts | 162° |
| 2026-05-06 09:26 | -4.62994 | 105.89876 | 30375 ft | 474 kts | 162° |
| 2026-05-06 09:26 | -4.66155 | 105.90801 | 29844 ft | 471 kts | 162° |
| 2026-05-06 09:26 | -4.69292 | 105.91719 | 29259 ft | 468 kts | 162° |
| 2026-05-06 09:26 | -4.72409 | 105.92631 | 28737 ft | 464 kts | 162° |
| 2026-05-06 09:27 | -4.75499 | 105.93536 | 28216 ft | 461 kts | 162° |
| 2026-05-06 09:27 | -4.78562 | 105.94433 | 27692 ft | 457 kts | 162° |
| 2026-05-06 09:27 | -4.81601 | 105.95323 | 27190 ft | 453 kts | 162° |
| 2026-05-06 09:27 | -4.84620 | 105.96206 | 26677 ft | 450 kts | 162° |
| 2026-05-06 09:28 | -4.87614 | 105.97083 | 26156 ft | 447 kts | 162° |
| 2026-05-06 09:28 | -4.90592 | 105.97955 | 25638 ft | 444 kts | 162° |
| 2026-05-06 09:28 | -4.93516 | 105.98812 | 25142 ft | 442 kts | 162° |
| 2026-05-06 09:28 | -4.96456 | 105.99674 | 24633 ft | 439 kts | 162° |
| 2026-05-06 09:29 | -4.99386 | 106.00532 | 24112 ft | 437 kts | 162° |
| 2026-05-06 09:29 | -5.02302 | 106.01386 | 23608 ft | 435 kts | 162° |
| 2026-05-06 09:29 | -5.05198 | 106.02235 | 23061 ft | 433 kts | 162° |
| 2026-05-06 09:29 | -5.08077 | 106.03078 | 22536 ft | 429 kts | 162° |
| 2026-05-06 09:30 | -5.10920 | 106.03911 | 22043 ft | 424 kts | 162° |
| 2026-05-06 09:30 | -5.13740 | 106.04738 | 21548 ft | 420 kts | 162° |
| 2026-05-06 09:30 | -5.16529 | 106.05555 | 21054 ft | 416 kts | 162° |
| 2026-05-06 09:30 | -5.19295 | 106.06366 | 20587 ft | 412 kts | 162° |
| 2026-05-06 09:31 | -5.22032 | 106.07169 | 20091 ft | 408 kts | 162° |
| 2026-05-06 09:31 | -5.24751 | 106.07966 | 19616 ft | 405 kts | 162° |
| 2026-05-06 09:31 | -5.27456 | 106.08759 | 19134 ft | 402 kts | 162° |
| 2026-05-06 09:31 | -5.30115 | 106.09539 | 18669 ft | 399 kts | 162° |
| 2026-05-06 09:32 | -5.32770 | 106.10318 | 18202 ft | 396 kts | 162° |
| 2026-05-06 09:32 | -5.35406 | 106.11091 | 17686 ft | 393 kts | 162° |
| 2026-05-06 09:32 | -5.38021 | 106.11858 | 17187 ft | 389 kts | 162° |
| 2026-05-06 09:32 | -5.40601 | 106.12614 | 16735 ft | 384 kts | 162° |
| 2026-05-06 09:33 | -5.43154 | 106.13363 | 16268 ft | 380 kts | 162° |
| 2026-05-06 09:33 | -5.45646 | 106.14094 | 15814 ft | 375 kts | 162° |
| 2026-05-06 09:33 | -5.48142 | 106.14827 | 15349 ft | 372 kts | 162° |
| 2026-05-06 09:33 | -5.50616 | 106.15553 | 14889 ft | 368 kts | 162° |
| 2026-05-06 09:34 | -5.53061 | 106.16271 | 14445 ft | 364 kts | 162° |
| 2026-05-06 09:34 | -5.55480 | 106.16981 | 14005 ft | 361 kts | 162° |
| 2026-05-06 09:34 | -5.57881 | 106.17685 | 13557 ft | 357 kts | 162° |
| 2026-05-06 09:34 | -5.60255 | 106.18382 | 13076 ft | 354 kts | 162° |
| 2026-05-06 09:35 | -5.62602 | 106.19071 | 12642 ft | 350 kts | 162° |
| 2026-05-06 09:35 | -5.64928 | 106.19754 | 12196 ft | 346 kts | 162° |
| 2026-05-06 09:35 | -5.67232 | 106.20431 | 11779 ft | 343 kts | 161° |
| 2026-05-06 09:35 | -5.69518 | 106.21102 | 11348 ft | 340 kts | 161° |
| 2026-05-06 09:36 | -5.71784 | 106.21767 | 10942 ft | 337 kts | 161° |
| 2026-05-06 09:36 | -5.74015 | 106.22422 | 10735 ft | 327 kts | 161° |
| 2026-05-06 09:36 | -5.76152 | 106.23048 | 10673 ft | 312 kts | 161° |
| 2026-05-06 09:36 | -5.78187 | 106.23645 | 10609 ft | 298 kts | 161° |
| 2026-05-06 09:37 | -5.80135 | 106.24217 | 10554 ft | 286 kts | 161° |
| 2026-05-06 09:37 | -5.82016 | 106.24770 | 10413 ft | 279 kts | 161° |
| 2026-05-06 09:37 | -5.83884 | 106.25320 | 10066 ft | 281 kts | 161° |
| 2026-05-06 09:37 | -5.85766 | 106.25875 | 9735 ft | 282 kts | 161° |
| 2026-05-06 09:38 | -5.87624 | 106.26422 | 9415 ft | 282 kts | 161° |
| 2026-05-06 09:38 | -5.89501 | 106.26974 | 9092 ft | 281 kts | 161° |
| 2026-05-06 09:38 | -5.91371 | 106.27524 | 8779 ft | 280 kts | 161° |
| 2026-05-06 09:38 | -5.93238 | 106.28072 | 8468 ft | 279 kts | 161° |
| 2026-05-06 09:39 | -5.95070 | 106.28610 | 8366 ft | 268 kts | 161° |
| 2026-05-06 09:39 | -5.96823 | 106.29124 | 8265 ft | 258 kts | 161° |
| 2026-05-06 09:39 | -5.98514 | 106.29621 | 8153 ft | 249 kts | 161° |
| 2026-05-06 09:39 | -6.00148 | 106.30101 | 8044 ft | 240 kts | 161° |
| 2026-05-06 09:40 | -6.01201 | 106.30410 | 7947 ft | 236 kts | 161° |
| 2026-05-06 09:40 | -6.02783 | 106.30877 | 7668 ft | 237 kts | 161° |
| 2026-05-06 09:40 | -6.05990 | 106.31634 | 7128 ft | 239 kts | 167° |
| 2026-05-06 09:41 | -6.07631 | 106.31926 | 6824 ft | 240 kts | 167° |
| 2026-05-06 09:41 | -6.09277 | 106.32213 | 6561 ft | 240 kts | 168° |
| 2026-05-06 09:41 | -6.10918 | 106.32499 | 6297 ft | 240 kts | 168° |
| 2026-05-06 09:41 | -6.12566 | 106.32789 | 6006 ft | 240 kts | 168° |
| 2026-05-06 09:42 | -6.14203 | 106.33076 | 5786 ft | 237 kts | 168° |
| 2026-05-06 09:42 | -6.15812 | 106.33359 | 5585 ft | 233 kts | 168° |
| 2026-05-06 09:42 | -6.17400 | 106.33639 | 5380 ft | 230 kts | 168° |
| 2026-05-06 09:42 | -6.18971 | 106.33917 | 5170 ft | 227 kts | 167° |
| 2026-05-06 09:43 | -6.20428 | 106.34453 | 4947 ft | 223 kts | 142° |
| 2026-05-06 09:43 | -6.21457 | 106.35601 | 4673 ft | 221 kts | 123° |
| 2026-05-06 09:43 | -6.22283 | 106.36905 | 4439 ft | 221 kts | 121° |
| 2026-05-06 09:43 | -6.23078 | 106.38226 | 4246 ft | 221 kts | 120° |
| 2026-05-06 09:44 | -6.23550 | 106.39660 | 4043 ft | 221 kts | 92° |
| 2026-05-06 09:44 | -6.23380 | 106.41191 | 3817 ft | 222 kts | 75° |
| 2026-05-06 09:44 | -6.22879 | 106.42657 | 3616 ft | 222 kts | 68° |
| 2026-05-06 09:44 | -6.22297 | 106.44093 | 3389 ft | 222 kts | 68° |
| 2026-05-06 09:45 | -6.21718 | 106.45531 | 3177 ft | 222 kts | 68° |
| 2026-05-06 09:45 | -6.21140 | 106.46970 | 3043 ft | 222 kts | 68° |
| 2026-05-06 09:45 | -6.20566 | 106.48409 | 3022 ft | 222 kts | 68° |
| 2026-05-06 09:45 | -6.19995 | 106.49850 | 2949 ft | 221 kts | 69° |
| 2026-05-06 09:46 | -6.19436 | 106.51272 | 2705 ft | 217 kts | 69° |
| 2026-05-06 09:46 | -6.18877 | 106.52685 | 2386 ft | 217 kts | 69° |
| 2026-05-06 09:46 | -6.18324 | 106.54078 | 2093 ft | 210 kts | 69° |
| 2026-05-06 09:46 | -6.17799 | 106.55402 | 1837 ft | 197 kts | 68° |
| 2026-05-06 09:47 | -6.17312 | 106.56633 | 1601 ft | 183 kts | 67° |
| 2026-05-06 09:47 | -6.16857 | 106.57782 | 1354 ft | 170 kts | 66° |
| 2026-05-06 09:47 | -6.16433 | 106.58852 | 1140 ft | 161 kts | 66° |
| 2026-05-06 09:47 | -6.16032 | 106.59862 | 941 ft | 150 kts | 68° |
| 2026-05-06 09:48 | -6.15661 | 106.60808 | 769 ft | 140 kts | 66° |
| 2026-05-06 09:48 | -6.15303 | 106.61694 | 590 ft | 135 kts | 65° |
| 2026-05-06 09:48 | -6.14951 | 106.62579 | 420 ft | 137 kts | 67° |
| 2026-05-06 09:48 | -6.14617 | 106.63467 | 283 ft | 135 kts | 66° |
| 2026-05-06 09:49 | -6.14268 | 106.64342 | 100 ft | 135 kts | 65° |
| 2026-05-06 09:49 | -6.13935 | 106.65171 | 45 ft | 110 kts | 68° |
| 2026-05-06 09:49 | -6.13723 | 106.65701 | 42 ft | 57 kts | 68° |
| 2026-05-06 09:49 | -6.13585 | 106.66039 | 41 ft | 46 kts | 67° |
| 2026-05-06 09:50 | -6.13459 | 106.66231 | 43 ft | 24 kts | 41° |
| 2026-05-06 09:50 | -6.13361 | 106.66298 | 42 ft | 12 kts | 11° |
| 2026-05-06 09:50 | -6.13300 | 106.66302 | 42 ft | 7 kts | 27° |
| 2026-05-06 09:50 | -6.13272 | 106.66346 | 42 ft | 8 kts | 66° |
| 2026-05-06 09:51 | -6.13248 | 106.66402 | 42 ft | 9 kts | 68° |
| 2026-05-06 09:51 | -6.13222 | 106.66467 | 42 ft | 11 kts | 68° |
| 2026-05-06 09:51 | -6.13191 | 106.66547 | 42 ft | 14 kts | 68° |
| 2026-05-06 09:51 | -6.13151 | 106.66647 | 41 ft | 17 kts | 68° |
| 2026-05-06 09:52 | -6.13104 | 106.66764 | 41 ft | 19 kts | 68° |
| 2026-05-06 09:52 | -6.13052 | 106.66895 | 41 ft | 21 kts | 68° |
| 2026-05-06 09:52 | -6.12994 | 106.67038 | 40 ft | 22 kts | 68° |
| 2026-05-06 09:52 | -6.12936 | 106.67184 | 40 ft | 23 kts | 68° |
| 2026-05-06 09:53 | -6.12877 | 106.67334 | 40 ft | 23 kts | 69° |
| 2026-05-06 09:53 | -6.12812 | 106.67479 | 40 ft | 23 kts | 60° |
| 2026-05-06 09:53 | -6.12730 | 106.67621 | 39 ft | 24 kts | 60° |
| 2026-05-06 09:53 | -6.12640 | 106.67758 | 39 ft | 24 kts | 47° |
| 2026-05-06 09:54 | -6.12503 | 106.67846 | 38 ft | 24 kts | 18° |
| 2026-05-06 09:54 | -6.12340 | 106.67853 | 38 ft | 24 kts | 347° |
| 2026-05-06 09:54 | -6.12184 | 106.67797 | 37 ft | 24 kts | 339° |
| 2026-05-06 09:54 | -6.12026 | 106.67735 | 36 ft | 25 kts | 339° |
| 2026-05-06 09:55 | -6.11865 | 106.67673 | 35 ft | 25 kts | 339° |
| 2026-05-06 09:55 | -6.11701 | 106.67607 | 35 ft | 25 kts | 338° |
| 2026-05-06 09:55 | -6.11536 | 106.67541 | 34 ft | 26 kts | 338° |
| 2026-05-06 09:55 | -6.11376 | 106.67477 | 34 ft | 23 kts | 338° |
| 2026-05-06 09:56 | -6.11236 | 106.67420 | 33 ft | 20 kts | 338° |
| 2026-05-06 09:56 | -6.11119 | 106.67364 | 33 ft | 17 kts | 320° |
| 2026-05-06 09:56 | -6.11088 | 106.67270 | 33 ft | 13 kts | 263° |
| 2026-05-06 09:56 | -6.11105 | 106.67188 | 33 ft | 11 kts | 256° |
| 2026-05-06 09:57 | -6.11122 | 106.67118 | 33 ft | 10 kts | 257° |
| 2026-05-06 09:57 | -6.11137 | 106.67053 | 33 ft | 10 kts | 256° |
| 2026-05-06 09:57 | -6.11154 | 106.66990 | 34 ft | 9 kts | 250° |
| 2026-05-06 09:57 | -6.11173 | 106.66940 | 34 ft | 5 kts | 248° |
| 2026-05-06 09:58 | -6.11176 | 106.66935 | 34 ft | 0 kts | 247° |
| 2026-05-06 09:58 | -6.11179 | 106.66925 | 34 ft | 4 kts | 248° |
| 2026-05-06 09:58 | -6.11198 | 106.66890 | 34 ft | 7 kts | 233° |
| 2026-05-06 09:59 | -6.11232 | 106.66878 | 34 ft | 4 kts | 179° |
| 2026-05-06 09:59 | -6.11263 | 106.66887 | 34 ft | 5 kts | 162° |
| 2026-05-06 09:59 | -6.11315 | 106.66906 | 34 ft | 11 kts | 159° |
| 2026-05-06 09:59 | -6.11391 | 106.66937 | 34 ft | 12 kts | 158° |
| 2026-05-06 10:00 | -6.11466 | 106.66911 | 34 ft | 14 kts | 238° |
| 2026-05-06 10:00 | -6.11505 | 106.66814 | 35 ft | 15 kts | 248° |
| 2026-05-06 10:00 | -6.11543 | 106.66716 | 35 ft | 15 kts | 247° |
| 2026-05-06 10:00 | -6.11583 | 106.66618 | 35 ft | 15 kts | 248° |
| 2026-05-06 10:01 | -6.11617 | 106.66532 | 36 ft | 12 kts | 248° |
| 2026-05-06 10:01 | -6.11645 | 106.66463 | 36 ft | 9 kts | 248° |
| 2026-05-06 10:01 | -6.11675 | 106.66427 | 36 ft | 4 kts | 200° |
| 2026-05-06 10:01 | -6.11689 | 106.66430 | 36 ft | 1 kts | 163° |
| 2026-05-06 10:02 | -6.11705 | 106.66436 | 36 ft | 4 kts | 158° |
| 2026-05-06 10:02 | -6.11735 | 106.66449 | 36 ft | 5 kts | 156° |
| 2026-05-06 10:02 | -6.11760 | 106.66459 | 36 ft | 3 kts | 157° |
| 2026-05-06 10:02 | -6.11766 | 106.66462 | 36 ft | 0 kts | 157° |